Time;durP1;ratioP1;P1;durP2;ratioP2;P2;SDS_P1;SDS_P2;PMS_P1;PMS_P2;Temp;Humidity;BMP_temperature;BMP_pressure;BME280_temperature;BME280_humidity;BME280_pressure;Samples;Min_cycle;Max_cycle;Signal;HPM_P1;HPM_P2
2023/06/04 00:02:16;;;;;;;5.90;2.33;;;11.70;99.90;;;;;;6301178;22;20061;-78
2023/06/04 00:04:42;;;;;;;5.25;1.95;;;11.70;99.90;;;;;;6275387;22;20007;-77
2023/06/04 00:07:07;;;;;;;6.05;2.00;;;11.70;99.90;;;;;;6301355;22;20011;-78
2023/06/04 00:09:33;;;;;;;5.50;1.83;;;11.80;99.90;;;;;;6275436;22;20016;-80
2023/06/04 00:11:59;;;;;;;5.88;2.20;;;11.70;99.90;;;;;;6328087;22;20050;-79
2023/06/04 00:14:24;;;;;;;6.32;2.85;;;11.70;99.90;;;;;;6274997;22;20007;-79
2023/06/04 00:16:50;;;;;;;5.00;2.00;;;11.60;99.90;;;;;;6327509;22;20442;-79
2023/06/04 00:19:16;;;;;;;4.70;2.20;;;11.50;99.90;;;;;;6249679;22;20098;-79
2023/06/04 00:21:41;;;;;;;5.70;2.30;;;11.50;99.90;;;;;;6275649;22;20114;-78
2023/06/04 00:24:07;;;;;;;5.28;2.45;;;11.50;99.90;;;;;;6277027;22;20091;-78
2023/06/04 00:26:33;;;;;;;6.03;2.35;;;11.50;99.90;;;;;;6275581;22;20054;-77
2023/06/04 00:28:59;;;;;;;5.13;2.33;;;11.50;99.90;;;;;;6249104;22;20405;-77
2023/06/04 00:31:24;;;;;;;4.50;2.00;;;11.50;99.90;;;;;;6301317;22;20039;-78
2023/06/04 00:33:50;;;;;;;5.90;2.10;;;11.40;99.90;;;;;;6275003;22;20389;-78
2023/06/04 00:36:16;;;;;;;6.40;2.20;;;11.40;99.90;;;;;;6275534;22;20012;-77
2023/06/04 00:38:41;;;;;;;6.57;2.50;;;11.40;99.90;;;;;;6249466;22;20094;-77
2023/06/04 00:41:07;;;;;;;7.15;2.60;;;11.30;99.90;;;;;;6275507;22;20034;-78
2023/06/04 00:43:33;;;;;;;7.43;2.40;;;11.30;99.90;;;;;;6274970;22;20446;-77
2023/06/04 00:45:59;;;;;;;8.70;2.50;;;11.20;99.90;;;;;;6277305;22;20012;-77
2023/06/04 00:48:27;;;;;;;7.38;2.88;;;11.10;99.90;;;;;;6275010;22;20022;-77
2023/06/04 00:50:53;;;;;;;4.88;2.30;;;11.10;99.90;;;;;;6274622;22;20008;-77
2023/06/04 00:53:21;;;;;;;7.38;2.60;;;11.00;99.90;;;;;;6248853;22;20400;-77
2023/06/04 00:55:46;;;;;;;6.40;2.47;;;11.00;99.90;;;;;;6275378;22;20106;-77
2023/06/04 00:58:12;;;;;;;5.85;2.60;;;11.00;99.90;;;;;;6301032;22;20050;-78
2023/06/04 01:00:39;;;;;;;7.38;2.90;;;11.00;99.90;;;;;;6327033;22;20038;-77
2023/06/04 01:03:13;;;;;;;7.40;2.83;;;10.90;99.90;;;;;;6224008;22;20008;-77
2023/06/04 01:05:51;;;;;;;6.93;2.83;;;10.80;99.90;;;;;;6249530;22;20023;-77
2023/06/04 01:08:18;;;;;;;8.20;3.05;;;10.70;99.90;;;;;;6249852;22;20062;-77
2023/06/04 01:10:55;;;;;;;7.60;2.75;;;10.70;99.90;;;;;;6275182;22;20011;-77
2023/06/04 01:13:20;;;;;;;8.80;2.97;;;10.70;99.90;;;;;;6274654;22;20058;-77
2023/06/04 01:15:46;;;;;;;6.90;2.75;;;10.70;99.90;;;;;;6326865;22;20432;-77
2023/06/04 01:18:27;;;;;;;6.05;2.55;;;10.60;99.90;;;;;;6275097;22;20016;-77
2023/06/04 01:21:02;;;;;;;7.03;2.45;;;10.60;99.90;;;;;;6249370;22;20090;-77
2023/06/04 01:23:49;;;;;;;7.30;2.67;;;10.60;99.90;;;;;;6249585;22;20018;-76
2023/06/04 01:26:15;;;;;;;11.32;4.85;;;10.50;99.90;;;;;;6249543;22;20011;-76
2023/06/04 01:28:42;;;;;;;7.80;2.90;;;10.50;99.90;;;;;;6223790;22;20008;-77
2023/06/04 01:31:09;;;;;;;9.20;2.80;;;10.50;99.90;;;;;;6248734;22;20095;-77
2023/06/04 01:33:35;;;;;;;8.00;3.00;;;10.40;99.90;;;;;;6274651;22;20011;-78
2023/06/04 01:36:01;;;;;;;8.57;2.83;;;10.40;99.90;;;;;;6300544;22;20018;-77
2023/06/04 01:38:27;;;;;;;7.93;2.90;;;10.40;99.90;;;;;;6248937;22;20435;-78
2023/06/04 01:40:56;;;;;;;5.72;2.60;;;10.50;99.90;;;;;;6274965;22;20008;-78
2023/06/04 01:43:22;;;;;;;9.10;3.03;;;10.40;99.90;;;;;;6275065;22;20007;-78
2023/06/04 01:45:48;;;;;;;8.90;3.20;;;10.40;99.90;;;;;;6274511;22;20012;-77
2023/06/04 01:48:14;;;;;;;8.10;3.05;;;10.40;99.90;;;;;;6275072;22;20046;-77
2023/06/04 01:50:40;;;;;;;7.85;2.78;;;10.40;99.90;;;;;;6276495;22;20007;-77
2023/06/04 01:53:06;;;;;;;7.85;3.10;;;10.40;99.90;;;;;;6326851;22;20095;-77
2023/06/04 01:55:33;;;;;;;6.65;2.85;;;10.40;99.90;;;;;;6274583;22;20326;-78
2023/06/04 01:58:00;;;;;;;6.75;2.60;;;10.40;99.90;;;;;;6326439;22;20011;-77
2023/06/04 02:00:25;;;;;;;8.32;2.80;;;10.40;99.90;;;;;;6248746;22;20014;-77
2023/06/04 02:02:51;;;;;;;7.25;2.70;;;10.40;99.90;;;;;;6327003;22;20388;-78
2023/06/04 02:05:17;;;;;;;6.28;2.80;;;10.40;99.90;;;;;;6300001;22;20384;-77
2023/06/04 02:07:44;;;;;;;7.55;2.80;;;10.40;99.90;;;;;;6274877;22;20027;-77
2023/06/04 02:10:20;;;;;;;6.78;2.65;;;10.50;99.90;;;;;;6248883;22;20050;-78
2023/06/04 02:12:57;;;;;;;8.43;3.20;;;10.50;99.90;;;;;;6274965;22;20011;-78
2023/06/04 02:15:24;;;;;;;7.88;3.00;;;10.40;99.90;;;;;;6247706;22;20015;-78
2023/06/04 02:17:50;;;;;;;5.25;2.03;;;10.40;99.90;;;;;;6274809;22;20089;-78
2023/06/04 02:20:17;;;;;;;4.03;1.77;;;10.50;99.90;;;;;;6274535;22;20012;-77
2023/06/04 02:22:43;;;;;;;3.92;1.60;;;10.50;99.90;;;;;;6274836;22;20090;-77
2023/06/04 02:25:11;;;;;;;4.20;2.10;;;10.50;99.90;;;;;;6248256;22;20050;-77
2023/06/04 02:27:37;;;;;;;4.53;2.60;;;10.60;99.90;;;;;;6300587;22;20476;-77
2023/06/04 02:30:03;;;;;;;2.80;1.85;;;10.50;99.90;;;;;;6326538;22;20011;-77
2023/06/04 02:32:29;;;;;;;2.50;1.70;;;10.50;99.90;;;;;;6274741;22;20445;-77
2023/06/04 02:34:55;;;;;;;2.85;1.80;;;10.40;99.90;;;;;;6326142;22;20019;-77
2023/06/04 02:37:22;;;;;;;2.60;1.40;;;10.40;99.90;;;;;;6326903;22;20035;-79
2023/06/04 02:39:48;;;;;;;2.58;1.63;;;10.30;99.90;;;;;;6248701;22;20460;-78
2023/06/04 02:42:13;;;;;;;2.60;1.80;;;10.20;99.90;;;;;;6326965;22;20008;-76
2023/06/04 02:44:39;;;;;;;2.05;1.35;;;10.10;99.90;;;;;;6248159;22;20011;-75
2023/06/04 02:47:05;;;;;;;3.33;1.60;;;9.90;99.90;;;;;;6325956;22;20338;-75
2023/06/04 02:49:31;;;;;;;6.45;2.03;;;9.80;99.90;;;;;;6276540;22;20061;-76
2023/06/04 02:51:56;;;;;;;5.43;2.20;;;9.80;99.90;;;;;;6278491;22;20011;-76
2023/06/04 02:54:22;;;;;;;5.03;2.17;;;9.70;99.90;;;;;;6327998;22;20012;-76
2023/06/04 02:56:49;;;;;;;5.68;2.15;;;9.70;99.90;;;;;;6250484;22;20083;-76
2023/06/04 02:59:14;;;;;;;7.35;2.40;;;9.60;99.90;;;;;;6276455;22;20050;-76
2023/06/04 03:01:40;;;;;;;5.18;2.50;;;9.60;99.90;;;;;;6276060;22;20007;-76
2023/06/04 03:04:09;;;;;;;6.72;2.80;;;9.60;99.90;;;;;;6278313;22;20061;-75
2023/06/04 03:06:38;;;;;;;6.70;3.15;;;9.70;99.90;;;;;;6275824;22;20019;-75
2023/06/04 03:09:04;;;;;;;6.70;2.85;;;9.60;99.90;;;;;;6276473;22;20552;-75
2023/06/04 03:11:29;;;;;;;5.90;2.83;;;9.60;99.90;;;;;;6275845;22;20012;-76
2023/06/04 03:13:55;;;;;;;7.05;3.08;;;9.60;99.90;;;;;;6301736;22;20012;-75
2023/06/04 03:16:21;;;;;;;8.02;3.80;;;9.70;99.90;;;;;;6250695;22;20008;-75
2023/06/04 03:18:47;;;;;;;8.25;3.70;;;9.60;99.90;;;;;;6301658;22;20015;-76
2023/06/04 03:21:13;;;;;;;8.88;3.40;;;9.60;99.90;;;;;;6301773;22;20466;-75
2023/06/04 03:23:39;;;;;;;6.57;2.25;;;9.60;99.90;;;;;;6250773;22;20091;-75
2023/06/04 03:26:05;;;;;;;4.30;1.60;;;9.70;99.90;;;;;;6328411;22;20031;-76
2023/06/04 03:28:32;;;;;;;6.32;1.80;;;9.70;99.90;;;;;;6327623;22;20323;-75
2023/06/04 03:30:58;;;;;;;2.83;1.20;;;9.70;99.90;;;;;;6277488;22;20092;-75
2023/06/04 03:33:24;;;;;;;1.92;1.20;;;9.70;99.90;;;;;;6250645;22;20012;-75
2023/06/04 03:35:53;;;;;;;3.20;1.25;;;9.70;99.90;;;;;;6276138;22;20007;-76
2023/06/04 03:38:19;;;;;;;3.58;1.42;;;9.70;99.90;;;;;;6327744;22;20090;-77
2023/06/04 03:40:45;;;;;;;4.43;1.30;;;9.70;99.90;;;;;;6300464;22;20015;-76
2023/06/04 03:43:11;;;;;;;3.33;1.50;;;9.70;99.90;;;;;;6275635;22;20004;-76
2023/06/04 03:45:37;;;;;;;4.38;1.52;;;9.70;99.90;;;;;;6275972;22;20068;-76
2023/06/04 03:48:03;;;;;;;3.30;1.58;;;9.70;99.90;;;;;;6328213;22;20012;-76
2023/06/04 03:50:28;;;;;;;3.17;1.40;;;9.60;99.90;;;;;;6275304;22;20472;-76
2023/06/04 03:52:54;;;;;;;5.32;2.00;;;9.70;99.90;;;;;;6277880;22;20069;-77
2023/06/04 03:55:19;;;;;;;6.53;2.10;;;9.60;99.90;;;;;;6327569;22;20103;-76
2023/06/04 03:57:45;;;;;;;5.70;2.00;;;9.60;99.90;;;;;;6275879;22;20020;-76
2023/06/04 04:00:12;;;;;;;5.43;2.00;;;9.60;99.90;;;;;;6300578;22;20091;-76
2023/06/04 04:02:42;;;;;;;3.40;1.60;;;9.60;99.90;;;;;;6275106;22;20342;-76
2023/06/04 04:05:07;;;;;;;6.95;2.50;;;9.60;99.90;;;;;;6277139;22;20031;-76
2023/06/04 04:07:33;;;;;;;4.13;1.88;;;9.60;99.90;;;;;;6275775;22;20327;-76
2023/06/04 04:09:59;;;;;;;5.22;2.08;;;9.50;99.90;;;;;;6224524;22;20015;-76
2023/06/04 04:12:24;;;;;;;7.60;2.55;;;9.50;99.90;;;;;;6300888;22;20007;-76
2023/06/04 04:14:50;;;;;;;6.93;2.55;;;9.60;99.90;;;;;;6301478;22;20445;-76
2023/06/04 04:17:16;;;;;;;5.32;2.40;;;9.50;99.90;;;;;;6301704;22;20008;-76
2023/06/04 04:19:42;;;;;;;7.63;2.42;;;9.50;99.90;;;;;;6276728;22;20043;-76
2023/06/04 04:22:08;;;;;;;5.82;2.22;;;9.50;99.90;;;;;;6301257;22;20011;-76
2023/06/04 04:24:36;;;;;;;6.82;1.92;;;9.40;99.90;;;;;;6301416;22;20035;-76
2023/06/04 04:27:03;;;;;;;6.85;2.30;;;9.50;99.90;;;;;;6277430;22;20015;-76
2023/06/04 04:29:32;;;;;;;4.32;2.00;;;9.50;99.90;;;;;;6277080;22;20012;-76
2023/06/04 04:32:09;;;;;;;8.60;2.60;;;9.50;99.90;;;;;;6223472;22;20453;-76
2023/06/04 04:34:37;;;;;;;5.57;2.08;;;9.50;99.90;;;;;;6224770;22;20022;-76
2023/06/04 04:37:03;;;;;;;7.22;2.67;;;9.50;99.90;;;;;;6277368;22;20011;-77
2023/06/04 04:39:29;;;;;;;6.18;2.60;;;9.60;99.90;;;;;;6276918;22;20015;-77
2023/06/04 04:41:55;;;;;;;5.47;2.30;;;9.60;99.90;;;;;;6274074;22;20344;-77
2023/06/04 04:44:21;;;;;;;6.32;2.30;;;9.60;99.90;;;;;;6249823;22;20014;-77
2023/06/04 04:46:48;;;;;;;9.82;3.30;;;9.70;99.90;;;;;;6249864;22;20012;-76
2023/06/04 04:49:14;;;;;;;9.52;3.75;;;9.70;99.90;;;;;;6301275;22;20011;-76
2023/06/04 04:51:40;;;;;;;12.38;4.90;;;9.80;99.90;;;;;;6301066;22;20007;-76
2023/06/04 04:54:05;;;;;;;13.02;6.53;;;9.90;99.90;;;;;;6224582;22;20012;-76
2023/06/04 04:56:34;;;;;;;12.88;5.45;;;10.00;99.90;;;;;;6301022;22;20012;-76
2023/06/04 04:58:59;;;;;;;12.27;6.38;;;10.10;99.90;;;;;;6276796;22;20019;-76
2023/06/04 05:01:25;;;;;;;9.27;5.47;;;10.20;99.90;;;;;;6274895;22;20004;-76
2023/06/04 05:03:51;;;;;;;11.10;5.40;;;10.30;99.90;;;;;;6249372;22;20008;-76
2023/06/04 05:06:16;;;;;;;13.48;7.10;;;10.40;99.90;;;;;;6276458;22;20505;-76
2023/06/04 05:08:42;;;;;;;14.43;7.20;;;10.50;99.90;;;;;;6276419;22;20087;-76
2023/06/04 05:11:09;;;;;;;10.48;5.95;;;10.60;99.90;;;;;;6274763;22;20016;-76
2023/06/04 05:13:34;;;;;;;14.40;7.05;;;10.70;99.90;;;;;;6248697;22;20393;-76
2023/06/04 05:16:06;;;;;;;12.95;6.00;;;10.90;99.90;;;;;;6276572;22;20073;-76
2023/06/04 05:18:33;;;;;;;13.10;6.22;;;11.00;99.90;;;;;;6224696;22;20012;-77
2023/06/04 05:21:00;;;;;;;12.00;5.82;;;11.10;99.90;;;;;;6249229;22;20031;-76
2023/06/04 05:23:30;;;;;;;14.95;5.80;;;11.20;99.90;;;;;;6249587;22;20014;-76
2023/06/04 05:25:55;;;;;;;16.63;5.95;;;11.40;99.90;;;;;;6300870;22;20004;-77
2023/06/04 05:28:24;;;;;;;13.77;5.78;;;11.50;99.90;;;;;;6276924;22;20088;-76
2023/06/04 05:30:49;;;;;;;13.35;5.10;;;11.60;99.90;;;;;;6249908;22;20015;-77
2023/06/04 05:33:18;;;;;;;13.68;6.47;;;11.70;99.90;;;;;;6301306;22;20016;-76
2023/06/04 05:35:51;;;;;;;13.85;4.90;;;11.80;99.90;;;;;;6300345;22;20142;-76
2023/06/04 05:38:25;;;;;;;14.85;5.30;;;11.90;99.90;;;;;;6224105;22;20104;-77
2023/06/04 05:40:58;;;;;;;13.88;4.45;;;12.00;99.90;;;;;;6248875;22;20011;-78
2023/06/04 05:43:24;;;;;;;15.10;5.53;;;12.10;99.90;;;;;;6223589;22;20011;-77
2023/06/04 05:45:49;;;;;;;14.10;5.47;;;12.30;99.90;;;;;;6274185;22;20007;-79
2023/06/04 05:48:18;;;;;;;11.88;4.78;;;12.40;99.90;;;;;;6276398;22;20018;-76
2023/06/04 05:50:43;;;;;;;12.63;5.85;;;12.50;99.90;;;;;;6249280;22;20011;-77
2023/06/04 05:53:09;;;;;;;12.15;5.15;;;12.60;99.90;;;;;;6300293;22;20087;-76
2023/06/04 05:55:35;;;;;;;12.88;5.15;;;12.70;99.90;;;;;;6223666;22;20016;-77
2023/06/04 05:58:00;;;;;;;14.68;5.38;;;12.80;99.90;;;;;;6276613;22;20012;-77
2023/06/04 06:00:26;;;;;;;14.55;5.32;;;12.90;99.90;;;;;;6274603;22;20345;-78
2023/06/04 06:02:55;;;;;;;13.23;5.10;;;13.10;99.90;;;;;;6301064;22;20008;-77
2023/06/04 06:05:21;;;;;;;9.10;4.20;;;13.20;99.90;;;;;;6274244;22;20012;-78
2023/06/04 06:07:47;;;;;;;13.30;4.60;;;13.30;99.90;;;;;;6249184;22;20358;-76
2023/06/04 06:10:13;;;;;;;11.95;4.47;;;13.30;99.90;;;;;;6248657;22;20043;-76
2023/06/04 06:12:39;;;;;;;11.63;4.60;;;13.30;99.90;;;;;;6248753;22;20450;-78
2023/06/04 06:15:06;;;;;;;12.43;4.93;;;13.40;99.90;;;;;;6222659;22;20090;-79
2023/06/04 06:17:32;;;;;;;14.15;5.07;;;13.40;99.90;;;;;;6223137;22;20035;-77
2023/06/04 06:19:58;;;;;;;12.73;4.05;;;13.50;99.90;;;;;;6300660;22;20338;-77
2023/06/04 06:22:24;;;;;;;12.15;4.28;;;13.50;99.90;;;;;;6249874;22;20008;-76
2023/06/04 06:24:50;;;;;;;12.18;4.72;;;13.60;99.90;;;;;;6225853;22;20507;-77
2023/06/04 06:27:16;;;;;;;12.50;4.03;;;13.80;99.90;;;;;;6302534;22;20499;-77
2023/06/04 06:29:42;;;;;;;11.57;4.45;;;13.90;99.90;;;;;;6278625;22;20033;-77
2023/06/04 06:32:09;;;;;;;14.27;4.57;;;14.00;99.90;;;;;;6225954;22;20338;-77
2023/06/04 06:34:35;;;;;;;13.95;4.43;;;14.00;99.90;;;;;;6225291;22;20086;-76
2023/06/04 06:37:00;;;;;;;12.07;4.32;;;14.20;99.90;;;;;;6302863;22;20039;-76
2023/06/04 06:39:26;;;;;;;10.13;4.15;;;14.20;99.90;;;;;;6302386;22;20023;-77
2023/06/04 06:41:52;;;;;;;9.75;3.97;;;14.30;99.90;;;;;;6302417;22;20438;-76
2023/06/04 06:44:17;;;;;;;8.52;3.25;;;14.40;99.90;;;;;;6276162;22;20012;-77
2023/06/04 06:46:43;;;;;;;12.43;4.40;;;14.50;99.90;;;;;;6275641;22;20007;-76
2023/06/04 06:49:09;;;;;;;11.88;3.85;;;14.50;99.90;;;;;;6276638;22;20388;-77
2023/06/04 06:51:34;;;;;;;15.00;3.70;;;14.60;99.90;;;;;;6276587;22;20015;-77
2023/06/04 06:54:00;;;;;;;10.68;3.30;;;14.70;99.90;;;;;;6301476;22;20095;-79
2023/06/04 06:56:26;;;;;;;11.48;3.40;;;14.80;99.90;;;;;;6276604;22;20012;-77
2023/06/04 06:58:51;;;;;;;12.05;3.55;;;15.00;99.90;;;;;;6276318;22;20016;-76
2023/06/04 07:01:17;;;;;;;9.55;3.28;;;15.10;99.90;;;;;;6302311;22;20043;-77
2023/06/04 07:03:43;;;;;;;9.00;3.10;;;15.10;99.90;;;;;;6301757;22;20012;-78
2023/06/04 07:06:08;;;;;;;11.40;3.30;;;15.10;99.90;;;;;;6276158;22;20014;-76
2023/06/04 07:08:35;;;;;;;12.18;3.60;;;15.30;99.90;;;;;;6277462;22;20027;-76
2023/06/04 07:11:02;;;;;;;13.20;3.20;;;15.30;99.90;;;;;;6250714;22;20012;-77
2023/06/04 07:13:28;;;;;;;10.18;3.00;;;15.30;99.90;;;;;;6249998;22;20012;-76
2023/06/04 07:15:54;;;;;;;9.98;2.83;;;15.30;99.90;;;;;;6277726;22;20463;-77
2023/06/04 07:18:20;;;;;;;8.00;2.70;;;15.40;99.90;;;;;;6275665;22;20012;-77
2023/06/04 07:20:45;;;;;;;8.52;2.38;;;15.50;99.90;;;;;;6224936;22;20503;-77
2023/06/04 07:23:11;;;;;;;9.40;2.33;;;15.60;99.90;;;;;;6276335;22;20509;-77
2023/06/04 07:25:36;;;;;;;11.32;2.67;;;15.70;99.90;;;;;;6301141;22;20014;-76
2023/06/04 07:28:03;;;;;;;10.90;2.58;;;15.80;99.90;;;;;;6275776;22;20016;-77
2023/06/04 07:30:33;;;;;;;9.60;2.45;;;15.90;99.90;;;;;;6250731;22;20094;-77
2023/06/04 07:32:58;;;;;;;9.80;2.13;;;15.90;99.90;;;;;;6225238;22;20318;-78
2023/06/04 07:35:24;;;;;;;6.72;1.90;;;16.10;99.90;;;;;;6301424;22;20016;-76
2023/06/04 07:37:50;;;;;;;7.60;2.20;;;16.20;99.90;;;;;;6301719;22;20011;-77
2023/06/04 07:40:17;;;;;;;9.73;2.63;;;16.00;99.90;;;;;;6277130;22;20003;-77
2023/06/04 07:42:43;;;;;;;7.85;2.20;;;16.20;99.90;;;;;;6225303;22;20383;-77
2023/06/04 07:45:09;;;;;;;9.65;2.45;;;16.20;99.90;;;;;;6224788;22;20039;-77
2023/06/04 07:47:38;;;;;;;8.82;2.30;;;16.20;99.90;;;;;;6302160;22;20042;-77
2023/06/04 07:50:05;;;;;;;8.13;2.50;;;16.20;99.90;;;;;;6275967;22;20018;-77
2023/06/04 07:52:31;;;;;;;7.38;2.08;;;16.20;99.90;;;;;;6277454;22;20011;-77
2023/06/04 07:54:56;;;;;;;8.38;2.05;;;16.30;99.90;;;;;;6224334;22;20058;-77
2023/06/04 07:57:22;;;;;;;8.05;2.10;;;16.30;99.90;;;;;;6250268;22;20501;-77
2023/06/04 07:59:48;;;;;;;5.50;1.52;;;16.40;99.90;;;;;;6250688;22;20417;-77
2023/06/04 08:02:14;;;;;;;7.63;1.52;;;16.50;99.90;;;;;;6275837;22;20338;-77
2023/06/04 08:04:40;;;;;;;6.55;1.77;;;16.70;99.90;;;;;;6249145;22;20808;-76
2023/06/04 08:07:06;;;;;;;6.90;1.92;;;16.60;99.90;;;;;;6274604;22;20074;-76
2023/06/04 08:09:32;;;;;;;8.10;1.90;;;16.60;99.90;;;;;;6273511;22;20409;-77
2023/06/04 08:11:57;;;;;;;7.95;2.30;;;16.60;99.90;;;;;;6267954;22;20012;-77
2023/06/04 08:14:27;;;;;;;5.90;1.75;;;16.60;99.90;;;;;;6248888;22;20070;-83
2023/06/04 08:16:53;;;;;;;8.63;2.10;;;16.80;99.90;;;;;;6224607;22;20445;-82
2023/06/04 08:19:19;;;;;;;4.97;1.70;;;16.90;99.90;;;;;;6248616;22;20012;-77
2023/06/04 08:21:45;;;;;;;6.07;2.13;;;16.90;99.90;;;;;;6300835;22;20445;-78
2023/06/04 08:24:11;;;;;;;5.75;1.70;;;17.00;99.90;;;;;;6301686;22;20090;-76
2023/06/04 08:26:37;;;;;;;6.47;1.95;;;17.10;99.90;;;;;;6300823;22;20370;-76
2023/06/04 08:29:04;;;;;;;6.68;1.83;;;17.00;99.90;;;;;;6300891;22;20022;-76
2023/06/04 08:31:30;;;;;;;5.93;1.70;;;17.00;99.90;;;;;;6300268;22;20406;-77
2023/06/04 08:33:55;;;;;;;5.35;1.73;;;17.00;99.90;;;;;;6248962;22;20047;-77
2023/06/04 08:36:21;;;;;;;4.40;1.50;;;17.10;99.90;;;;;;6299568;22;20046;-77
2023/06/04 08:38:50;;;;;;;4.40;1.70;;;17.10;99.90;;;;;;6273774;22;20016;-76
2023/06/04 08:41:23;;;;;;;4.90;1.88;;;17.20;99.90;;;;;;6300345;22;20042;-77
2023/06/04 08:43:49;;;;;;;6.30;1.80;;;17.40;99.90;;;;;;6223106;22;20082;-77
2023/06/04 08:46:17;;;;;;;4.72;1.63;;;17.40;99.90;;;;;;6223185;22;20003;-77
2023/06/04 08:48:43;;;;;;;7.00;1.83;;;17.50;99.90;;;;;;6223355;22;20023;-76
2023/06/04 08:51:11;;;;;;;3.10;1.20;;;17.50;99.90;;;;;;6223147;22;20043;-77
2023/06/04 08:53:37;;;;;;;4.80;1.55;;;17.70;99.90;;;;;;6249139;22;20019;-77
2023/06/04 08:56:03;;;;;;;3.60;1.40;;;17.60;99.90;;;;;;6300599;22;20392;-78
2023/06/04 08:58:35;;;;;;;5.32;1.50;;;17.70;99.90;;;;;;6273402;22;20016;-77
2023/06/04 09:01:01;;;;;;;;;;;17.80;99.90;;;;;;6273623;22;20047;-77
2023/06/04 09:03:27;;;;;;;6.97;1.50;;;17.80;99.90;;;;;;6221866;22;19926;-78
2023/06/04 09:05:55;;;;;;;5.38;1.85;;;18.00;99.90;;;;;;6229715;22;20350;-77
2023/06/04 09:08:22;;;;;;;7.68;2.00;;;18.10;99.90;;;;;;6275216;22;20517;-77
2023/06/04 09:10:51;;;;;;;4.72;1.90;;;18.10;99.90;;;;;;6272724;22;20378;-78
2023/06/04 09:13:21;;;;;;;5.88;1.70;;;18.10;99.90;;;;;;6269182;22;20019;-77
2023/06/04 09:15:57;;;;;;;3.50;1.40;;;18.10;99.90;;;;;;6272880;22;20034;-77
2023/06/04 09:18:26;;;;;;;5.70;1.50;;;18.30;99.90;;;;;;6247978;22;20011;-77
2023/06/04 09:21:08;;;;;;;6.38;1.95;;;18.40;99.90;;;;;;6248992;22;20008;-77
2023/06/04 09:23:36;;;;;;;4.38;1.65;;;18.50;99.90;;;;;;6274049;22;20012;-78
2023/06/04 09:26:09;;;;;;;5.80;1.23;;;18.60;99.90;;;;;;6275712;22;20007;-80
2023/06/04 09:28:36;;;;;;;5.85;1.83;;;18.70;99.90;;;;;;6248253;22;20020;-77
2023/06/04 09:31:04;;;;;;;4.50;1.60;;;18.70;99.90;;;;;;6248939;22;20479;-77
2023/06/04 09:33:30;;;;;;;6.18;2.08;;;18.70;99.90;;;;;;6274352;22;20086;-77
2023/06/04 09:35:59;;;;;;;4.90;1.67;;;18.70;99.90;;;;;;6299558;22;20047;-78
2023/06/04 09:38:37;;;;;;;3.58;1.42;;;18.70;99.90;;;;;;6247261;22;20011;-78
2023/06/04 09:41:06;;;;;;;6.30;1.65;;;18.80;99.90;;;;;;6300739;22;20007;-77
2023/06/04 09:43:32;;;;;;;6.50;1.67;;;18.90;99.90;;;;;;6275475;22;20469;-77
2023/06/04 09:46:12;;;;;;;5.82;1.95;;;19.00;99.90;;;;;;6248347;22;20050;-77
2023/06/04 09:48:38;;;;;;;8.00;1.80;;;19.10;99.90;;;;;;6248668;22;20327;-77
2023/06/04 09:51:22;;;;;;;6.07;1.70;;;19.10;99.90;;;;;;6248451;22;20492;-77
2023/06/04 09:53:55;;;;;;;7.10;1.92;;;19.30;99.90;;;;;;6325539;22;20023;-78
2023/06/04 09:56:22;;;;;;;6.38;1.77;;;19.20;99.90;;;;;;6248334;22;20019;-77
2023/06/04 09:58:49;;;;;;;7.60;1.88;;;19.30;99.90;;;;;;6276212;22;20016;-77
2023/06/04 10:01:15;;;;;;;8.02;2.17;;;19.20;99.90;;;;;;6273438;22;20012;-77
2023/06/04 10:03:46;;;;;;;5.53;1.70;;;19.20;99.90;;;;;;6275795;22;20091;-78
2023/06/04 10:06:15;;;;;;;6.23;1.83;;;19.30;99.90;;;;;;6250892;22;20058;-78
2023/06/04 10:08:42;;;;;;;5.30;1.80;;;19.40;99.90;;;;;;6275247;22;20405;-78
2023/06/04 10:11:10;;;;;;;4.47;1.52;;;19.50;99.90;;;;;;6329201;22;20043;-78
2023/06/04 10:13:45;;;;;;;6.32;1.90;;;19.60;99.90;;;;;;6250374;22;20437;-78
2023/06/04 10:16:12;;;;;;;6.25;2.13;;;19.50;99.90;;;;;;6276050;22;20015;-78
2023/06/04 10:18:38;;;;;;;5.85;1.73;;;19.50;99.90;;;;;;6278354;22;20049;-78
2023/06/04 10:21:06;;;;;;;7.25;2.13;;;19.60;99.90;;;;;;6276391;22;20012;-78
2023/06/04 10:23:31;;;;;;;4.50;1.73;;;19.70;99.90;;;;;;6278150;22;20019;-80
2023/06/04 10:25:57;;;;;;;5.78;1.50;;;19.80;99.90;;;;;;6302447;22;20008;-78
2023/06/04 10:28:23;;;;;;;6.35;1.67;;;19.90;99.90;;;;;;6224404;22;20019;-78
2023/06/04 10:30:50;;;;;;;6.50;1.80;;;19.90;99.90;;;;;;6276166;22;20015;-78
2023/06/04 10:33:24;;;;;;;4.57;1.70;;;19.80;99.90;;;;;;6249920;22;20016;-78
2023/06/04 10:35:51;;;;;;;5.50;1.90;;;19.90;99.90;;;;;;6276112;22;20333;-79
2023/06/04 10:38:18;;;;;;;5.75;1.80;;;20.00;99.90;;;;;;6250027;22;20024;-78
2023/06/04 10:40:44;;;;;;;6.28;1.98;;;20.00;99.90;;;;;;6276819;22;20008;-78
2023/06/04 10:43:15;;;;;;;5.65;1.75;;;20.00;99.90;;;;;;6326758;22;20008;-78
2023/06/04 10:45:42;;;;;;;4.35;1.52;;;20.00;99.90;;;;;;6250528;22;20441;-77
2023/06/04 10:48:09;;;;;;;5.25;1.75;;;20.00;99.90;;;;;;6250092;22;20463;-78
2023/06/04 10:50:48;;;;;;;6.05;1.65;;;19.90;99.90;;;;;;6275565;22;20058;-77
2023/06/04 10:53:13;;;;;;;6.50;2.08;;;20.00;99.90;;;;;;6250147;22;20011;-78
2023/06/04 10:55:49;;;;;;;5.43;1.70;;;20.00;99.90;;;;;;6301477;22;20030;-77
2023/06/04 10:58:15;;;;;;;4.65;1.75;;;20.00;99.90;;;;;;6249855;22;20023;-78
2023/06/04 11:00:47;;;;;;;4.32;1.60;;;20.20;99.90;;;;;;6249563;22;20524;-77
2023/06/04 11:03:13;;;;;;;10.80;2.30;;;20.30;99.90;;;;;;6274871;22;20012;-77
2023/06/04 11:05:44;;;;;;;6.63;2.03;;;20.00;99.90;;;;;;6249694;22;20015;-77
2023/06/04 11:08:13;;;;;;;5.47;1.60;;;20.10;99.90;;;;;;6277715;22;20016;-78
2023/06/04 11:10:45;;;;;;;6.07;1.70;;;20.10;99.90;;;;;;6276234;22;20011;-78
2023/06/04 11:13:11;;;;;;;4.40;1.60;;;20.10;99.90;;;;;;6326160;22;20016;-77
2023/06/04 11:15:48;;;;;;;6.38;1.70;;;20.10;99.60;;;;;;6275337;22;20090;-78
2023/06/04 11:18:15;;;;;;;6.03;2.03;;;20.10;99.90;;;;;;6275562;22;20465;-78
2023/06/04 11:20:42;;;;;;;6.00;1.85;;;20.10;99.90;;;;;;6274925;22;20445;-77
2023/06/04 11:23:08;;;;;;;7.40;1.80;;;20.10;99.90;;;;;;6301063;22;20526;-79
2023/06/04 11:25:34;;;;;;;4.72;1.33;;;20.20;99.90;;;;;;6274439;22;20012;-77
2023/06/04 11:28:01;;;;;;;5.22;1.83;;;20.20;99.90;;;;;;6274652;22;20011;-79
2023/06/04 11:30:27;;;;;;;5.93;1.90;;;20.30;99.90;;;;;;6276708;22;20016;-80
2023/06/04 11:33:06;;;;;;;4.32;1.60;;;20.30;99.90;;;;;;6274272;22;20012;-78
2023/06/04 11:35:40;;;;;;;5.03;1.73;;;20.30;99.90;;;;;;6299775;22;20011;-78
2023/06/04 11:38:06;;;;;;;3.42;1.67;;;20.10;98.80;;;;;;6274301;22;20066;-78
2023/06/04 11:40:31;;;;;;;6.40;1.90;;;20.00;99.90;;;;;;6326788;22;20015;-79
2023/06/04 11:42:57;;;;;;;4.97;1.60;;;20.10;99.90;;;;;;6276102;22;20430;-79
2023/06/04 11:45:23;;;;;;;6.80;1.92;;;20.10;99.90;;;;;;6277866;22;20012;-78
2023/06/04 11:47:51;;;;;;;4.93;1.80;;;20.10;99.90;;;;;;6300376;22;20035;-78
2023/06/04 11:50:17;;;;;;;5.22;1.70;;;20.10;99.90;;;;;;6301423;22;20030;-78
2023/06/04 11:52:43;;;;;;;7.13;1.77;;;20.20;99.90;;;;;;6326060;22;20011;-79
2023/06/04 11:55:12;;;;;;;7.78;1.85;;;20.10;99.90;;;;;;6248979;22;20043;-81
2023/06/04 11:57:39;;;;;;;4.88;1.90;;;20.10;99.90;;;;;;6275006;22;20015;-78
2023/06/04 12:00:10;;;;;;;4.90;1.90;;;20.00;99.90;;;;;;6276061;22;20485;-78
2023/06/04 12:02:54;;;;;;;6.85;2.17;;;19.90;99.90;;;;;;6274464;22;20007;-78
2023/06/04 12:05:23;;;;;;;7.93;1.90;;;19.90;99.90;;;;;;6273910;22;20319;-78
2023/06/04 12:07:50;;;;;;;6.30;2.00;;;20.00;99.90;;;;;;6246717;22;20014;-78
2023/06/04 12:10:17;;;;;;;7.90;2.20;;;20.00;99.90;;;;;;6224133;22;20008;-78
2023/06/04 12:12:43;;;;;;;6.20;1.77;;;20.00;99.90;;;;;;6249523;22;20015;-78
2023/06/04 12:15:09;;;;;;;5.78;1.58;;;20.00;99.90;;;;;;6249173;22;20014;-79
2023/06/04 12:17:37;;;;;;;5.75;1.88;;;20.10;99.90;;;;;;6248559;22;20065;-78
2023/06/04 12:20:05;;;;;;;7.45;2.03;;;20.20;99.90;;;;;;6223852;22;20004;-78
2023/06/04 12:22:31;;;;;;;7.28;2.00;;;20.10;99.90;;;;;;6248812;22;20018;-78
2023/06/04 12:25:00;;;;;;;5.30;1.70;;;20.00;99.90;;;;;;6273136;22;20011;-78
2023/06/04 12:27:26;;;;;;;5.85;1.88;;;20.10;99.90;;;;;;6273208;22;20388;-79
2023/06/04 12:30:01;;;;;;;4.45;1.60;;;20.10;99.90;;;;;;6246294;22;20522;-79
2023/06/04 12:32:27;;;;;;;7.88;1.90;;;20.00;99.90;;;;;;6249693;22;20019;-78
2023/06/04 12:34:53;;;;;;;6.45;1.80;;;20.10;99.90;;;;;;6276389;22;20008;-79
2023/06/04 12:37:19;;;;;;;5.03;1.90;;;20.00;99.40;;;;;;6224078;22;20015;-78
2023/06/04 12:39:45;;;;;;;4.60;1.55;;;19.90;99.90;;;;;;6276623;22;20050;-78
2023/06/04 12:42:11;;;;;;;6.68;1.95;;;20.00;99.90;;;;;;6300454;22;20007;-79
2023/06/04 12:44:40;;;;;;;4.80;1.80;;;19.90;99.90;;;;;;6274696;22;20345;-79
2023/06/04 12:47:07;;;;;;;5.43;1.80;;;20.00;99.90;;;;;;6223302;22;20063;-79
2023/06/04 12:49:36;;;;;;;6.45;1.50;;;20.10;99.90;;;;;;6248180;22;20022;-78